sensor_id;sensor_type;location;lat;lon;timestamp;P1;durP1;ratioP1;P2;durP2;ratioP2
25045;SDS011;13044;49.304;12.840;2023-08-24T00:01:57;2.85;;;2.28;;
25045;SDS011;13044;49.304;12.840;2023-08-24T00:04:24;2.40;;;2.20;;
25045;SDS011;13044;49.304;12.840;2023-08-24T00:06:51;5.47;;;2.30;;
25045;SDS011;13044;49.304;12.840;2023-08-24T00:09:18;2.60;;;2.40;;
25045;SDS011;13044;49.304;12.840;2023-08-24T00:11:45;3.00;;;2.38;;
25045;SDS011;13044;49.304;12.840;2023-08-24T00:14:12;2.47;;;2.28;;
25045;SDS011;13044;49.304;12.840;2023-08-24T00:16:39;2.95;;;2.45;;
25045;SDS011;13044;49.304;12.840;2023-08-24T00:19:07;3.92;;;2.47;;
25045;SDS011;13044;49.304;12.840;2023-08-24T00:21:34;3.88;;;2.58;;
25045;SDS011;13044;49.304;12.840;2023-08-24T00:24:01;3.05;;;2.35;;
25045;SDS011;13044;49.304;12.840;2023-08-24T00:26:28;2.50;;;2.30;;
25045;SDS011;13044;49.304;12.840;2023-08-24T00:28:54;3.00;;;2.67;;
25045;SDS011;13044;49.304;12.840;2023-08-24T00:31:21;2.67;;;2.33;;
25045;SDS011;13044;49.304;12.840;2023-08-24T00:33:48;2.63;;;2.42;;
25045;SDS011;13044;49.304;12.840;2023-08-24T00:36:16;2.28;;;2.17;;
25045;SDS011;13044;49.304;12.840;2023-08-24T00:38:47;2.75;;;2.20;;
25045;SDS011;13044;49.304;12.840;2023-08-24T00:41:17;3.35;;;2.38;;
25045;SDS011;13044;49.304;12.840;2023-08-24T00:43:44;2.40;;;2.10;;
25045;SDS011;13044;49.304;12.840;2023-08-24T00:46:11;2.33;;;2.05;;
25045;SDS011;13044;49.304;12.840;2023-08-24T00:48:38;2.70;;;2.25;;
25045;SDS011;13044;49.304;12.840;2023-08-24T00:51:05;4.18;;;2.20;;
25045;SDS011;13044;49.304;12.840;2023-08-24T00:53:31;2.78;;;2.50;;
25045;SDS011;13044;49.304;12.840;2023-08-24T00:55:59;3.25;;;2.00;;
25045;SDS011;13044;49.304;12.840;2023-08-24T00:58:26;3.38;;;2.28;;
25045;SDS011;13044;49.304;12.840;2023-08-24T01:00:54;2.35;;;2.00;;
25045;SDS011;13044;49.304;12.840;2023-08-24T01:03:23;2.40;;;2.20;;
25045;SDS011;13044;49.304;12.840;2023-08-24T01:05:51;2.35;;;2.15;;
25045;SDS011;13044;49.304;12.840;2023-08-24T01:08:19;3.88;;;2.60;;
25045;SDS011;13044;49.304;12.840;2023-08-24T01:13:39;3.17;;;2.30;;
25045;SDS011;13044;49.304;12.840;2023-08-24T01:16:25;2.42;;;2.15;;
25045;SDS011;13044;49.304;12.840;2023-08-24T01:18:56;2.83;;;2.45;;
25045;SDS011;13044;49.304;12.840;2023-08-24T01:21:28;2.30;;;2.10;;
25045;SDS011;13044;49.304;12.840;2023-08-24T01:26:45;2.60;;;2.38;;
25045;SDS011;13044;49.304;12.840;2023-08-24T01:29:14;2.47;;;2.28;;
25045;SDS011;13044;49.304;12.840;2023-08-24T01:31:41;3.72;;;2.72;;
25045;SDS011;13044;49.304;12.840;2023-08-24T01:34:08;3.00;;;2.35;;
25045;SDS011;13044;49.304;12.840;2023-08-24T01:36:35;2.92;;;2.53;;
25045;SDS011;13044;49.304;12.840;2023-08-24T01:39:07;2.92;;;2.63;;
25045;SDS011;13044;49.304;12.840;2023-08-24T01:41:57;11.57;;;2.20;;
25045;SDS011;13044;49.304;12.840;2023-08-24T01:44:30;3.72;;;2.75;;
25045;SDS011;13044;49.304;12.840;2023-08-24T01:47:02;2.97;;;2.50;;
25045;SDS011;13044;49.304;12.840;2023-08-24T01:49:31;2.90;;;2.55;;
25045;SDS011;13044;49.304;12.840;2023-08-24T01:52:00;2.88;;;2.58;;
25045;SDS011;13044;49.304;12.840;2023-08-24T01:54:30;5.15;;;2.63;;
25045;SDS011;13044;49.304;12.840;2023-08-24T01:56:57;3.67;;;2.40;;
25045;SDS011;13044;49.304;12.840;2023-08-24T01:59:24;2.67;;;2.30;;
25045;SDS011;13044;49.304;12.840;2023-08-24T02:01:51;3.58;;;2.65;;
25045;SDS011;13044;49.304;12.840;2023-08-24T02:04:18;2.50;;;2.30;;
25045;SDS011;13044;49.304;12.840;2023-08-24T02:06:45;2.83;;;2.40;;
25045;SDS011;13044;49.304;12.840;2023-08-24T02:09:12;2.65;;;2.35;;
25045;SDS011;13044;49.304;12.840;2023-08-24T02:11:39;2.80;;;2.60;;
25045;SDS011;13044;49.304;12.840;2023-08-24T02:14:05;2.72;;;2.53;;
25045;SDS011;13044;49.304;12.840;2023-08-24T02:16:33;3.78;;;2.50;;
25045;SDS011;13044;49.304;12.840;2023-08-24T02:19:00;2.33;;;2.13;;
25045;SDS011;13044;49.304;12.840;2023-08-24T02:21:27;2.88;;;2.58;;
25045;SDS011;13044;49.304;12.840;2023-08-24T02:23:54;3.25;;;2.50;;
25045;SDS011;13044;49.304;12.840;2023-08-24T02:26:20;2.40;;;2.20;;
25045;SDS011;13044;49.304;12.840;2023-08-24T02:28:47;2.78;;;2.25;;
25045;SDS011;13044;49.304;12.840;2023-08-24T02:31:14;2.58;;;2.38;;
25045;SDS011;13044;49.304;12.840;2023-08-24T02:33:42;2.40;;;2.13;;
25045;SDS011;13044;49.304;12.840;2023-08-24T02:36:09;2.60;;;2.40;;
25045;SDS011;13044;49.304;12.840;2023-08-24T02:38:36;3.92;;;2.42;;
25045;SDS011;13044;49.304;12.840;2023-08-24T02:41:03;5.00;;;2.38;;
25045;SDS011;13044;49.304;12.840;2023-08-24T02:43:32;2.63;;;2.28;;
25045;SDS011;13044;49.304;12.840;2023-08-24T02:46:03;4.43;;;2.60;;
25045;SDS011;13044;49.304;12.840;2023-08-24T02:48:34;4.00;;;2.30;;
25045;SDS011;13044;49.304;12.840;2023-08-24T02:51:02;2.42;;;2.13;;
25045;SDS011;13044;49.304;12.840;2023-08-24T02:53:30;2.60;;;2.40;;
25045;SDS011;13044;49.304;12.840;2023-08-24T02:55:58;3.45;;;2.45;;
25045;SDS011;13044;49.304;12.840;2023-08-24T02:58:25;4.05;;;2.45;;
25045;SDS011;13044;49.304;12.840;2023-08-24T03:00:53;2.70;;;2.28;;
25045;SDS011;13044;49.304;12.840;2023-08-24T03:03:21;2.70;;;2.50;;
25045;SDS011;13044;49.304;12.840;2023-08-24T03:06:07;3.38;;;2.22;;
25045;SDS011;13044;49.304;12.840;2023-08-24T03:08:34;2.45;;;2.25;;
25045;SDS011;13044;49.304;12.840;2023-08-24T03:11:02;2.55;;;2.35;;
25045;SDS011;13044;49.304;12.840;2023-08-24T03:13:29;3.67;;;2.28;;
25045;SDS011;13044;49.304;12.840;2023-08-24T03:15:57;2.50;;;2.30;;
25045;SDS011;13044;49.304;12.840;2023-08-24T03:18:29;2.83;;;2.37;;
25045;SDS011;13044;49.304;12.840;2023-08-24T03:20:56;2.67;;;2.45;;
25045;SDS011;13044;49.304;12.840;2023-08-24T03:23:23;2.55;;;2.00;;
25045;SDS011;13044;49.304;12.840;2023-08-24T03:25:50;2.58;;;2.33;;
25045;SDS011;13044;49.304;12.840;2023-08-24T03:28:17;3.97;;;2.10;;
25045;SDS011;13044;49.304;12.840;2023-08-24T03:30:49;3.03;;;2.30;;
25045;SDS011;13044;49.304;12.840;2023-08-24T03:33:18;2.53;;;2.33;;
25045;SDS011;13044;49.304;12.840;2023-08-24T03:35:45;2.63;;;2.42;;
25045;SDS011;13044;49.304;12.840;2023-08-24T03:38:13;2.60;;;2.40;;
25045;SDS011;13044;49.304;12.840;2023-08-24T03:40:40;2.63;;;2.42;;
25045;SDS011;13044;49.304;12.840;2023-08-24T03:43:07;2.50;;;2.30;;
25045;SDS011;13044;49.304;12.840;2023-08-24T03:45:34;3.22;;;2.40;;
25045;SDS011;13044;49.304;12.840;2023-08-24T03:48:01;3.17;;;2.40;;
25045;SDS011;13044;49.304;12.840;2023-08-24T03:50:28;3.10;;;2.30;;
25045;SDS011;13044;49.304;12.840;2023-08-24T03:52:55;2.60;;;2.33;;
25045;SDS011;13044;49.304;12.840;2023-08-24T03:55:22;3.15;;;2.65;;
25045;SDS011;13044;49.304;12.840;2023-08-24T03:57:49;2.72;;;2.53;;
25045;SDS011;13044;49.304;12.840;2023-08-24T04:00:16;2.40;;;2.20;;
25045;SDS011;13044;49.304;12.840;2023-08-24T04:02:44;3.17;;;2.25;;
25045;SDS011;13044;49.304;12.840;2023-08-24T04:05:11;2.65;;;2.45;;
25045;SDS011;13044;49.304;12.840;2023-08-24T04:07:38;2.47;;;2.28;;
25045;SDS011;13044;49.304;12.840;2023-08-24T04:10:06;2.30;;;2.10;;
25045;SDS011;13044;49.304;12.840;2023-08-24T04:12:34;2.30;;;2.10;;
25045;SDS011;13044;49.304;12.840;2023-08-24T04:15:02;2.35;;;2.15;;
25045;SDS011;13044;49.304;12.840;2023-08-24T04:17:29;2.42;;;2.20;;
25045;SDS011;13044;49.304;12.840;2023-08-24T04:19:56;2.30;;;2.10;;
25045;SDS011;13044;49.304;12.840;2023-08-24T04:22:23;3.38;;;2.40;;
25045;SDS011;13044;49.304;12.840;2023-08-24T04:24:50;2.50;;;2.30;;
25045;SDS011;13044;49.304;12.840;2023-08-24T04:27:17;3.03;;;2.30;;
25045;SDS011;13044;49.304;12.840;2023-08-24T04:29:45;2.63;;;2.28;;
25045;SDS011;13044;49.304;12.840;2023-08-24T04:32:11;2.50;;;2.30;;
25045;SDS011;13044;49.304;12.840;2023-08-24T04:34:38;2.60;;;2.38;;
25045;SDS011;13044;49.304;12.840;2023-08-24T04:37:05;2.30;;;2.10;;
25045;SDS011;13044;49.304;12.840;2023-08-24T04:39:33;2.63;;;2.42;;
25045;SDS011;13044;49.304;12.840;2023-08-24T04:42:01;4.10;;;2.40;;
25045;SDS011;13044;49.304;12.840;2023-08-24T04:44:28;4.80;;;2.55;;
25045;SDS011;13044;49.304;12.840;2023-08-24T04:46:55;3.60;;;2.80;;
25045;SDS011;13044;49.304;12.840;2023-08-24T04:49:22;2.55;;;2.30;;
25045;SDS011;13044;49.304;12.840;2023-08-24T04:51:50;2.83;;;2.53;;
25045;SDS011;13044;49.304;12.840;2023-08-24T04:54:17;2.25;;;2.05;;
25045;SDS011;13044;49.304;12.840;2023-08-24T04:56:44;3.30;;;2.33;;
25045;SDS011;13044;49.304;12.840;2023-08-24T04:59:11;3.35;;;2.33;;
25045;SDS011;13044;49.304;12.840;2023-08-24T05:01:38;6.20;;;2.50;;
25045;SDS011;13044;49.304;12.840;2023-08-24T05:04:05;3.13;;;2.60;;
25045;SDS011;13044;49.304;12.840;2023-08-24T05:06:32;4.28;;;2.40;;
25045;SDS011;13044;49.304;12.840;2023-08-24T05:08:58;2.90;;;2.60;;
25045;SDS011;13044;49.304;12.840;2023-08-24T05:11:26;5.70;;;2.53;;
25045;SDS011;13044;49.304;12.840;2023-08-24T05:13:57;3.47;;;2.80;;
25045;SDS011;13044;49.304;12.840;2023-08-24T05:16:24;2.80;;;2.50;;
25045;SDS011;13044;49.304;12.840;2023-08-24T05:18:51;4.07;;;2.70;;
25045;SDS011;13044;49.304;12.840;2023-08-24T05:21:18;2.65;;;2.45;;
25045;SDS011;13044;49.304;12.840;2023-08-24T05:23:45;3.83;;;2.90;;
25045;SDS011;13044;49.304;12.840;2023-08-24T05:26:11;2.90;;;2.70;;
25045;SDS011;13044;49.304;12.840;2023-08-24T05:28:38;2.63;;;2.40;;
25045;SDS011;13044;49.304;12.840;2023-08-24T05:31:05;3.00;;;2.55;;
25045;SDS011;13044;49.304;12.840;2023-08-24T05:33:32;3.08;;;2.78;;
25045;SDS011;13044;49.304;12.840;2023-08-24T05:35:59;4.75;;;2.50;;
25045;SDS011;13044;49.304;12.840;2023-08-24T05:38:26;3.08;;;2.50;;
25045;SDS011;13044;49.304;12.840;2023-08-24T05:40:53;4.00;;;2.67;;
25045;SDS011;13044;49.304;12.840;2023-08-24T05:43:20;2.72;;;2.25;;
25045;SDS011;13044;49.304;12.840;2023-08-24T05:45:47;2.60;;;2.40;;
25045;SDS011;13044;49.304;12.840;2023-08-24T05:48:15;3.75;;;2.33;;
25045;SDS011;13044;49.304;12.840;2023-08-24T05:50:43;3.03;;;2.50;;
25045;SDS011;13044;49.304;12.840;2023-08-24T05:53:12;2.90;;;2.70;;
25045;SDS011;13044;49.304;12.840;2023-08-24T05:55:39;4.53;;;3.05;;
25045;SDS011;13044;49.304;12.840;2023-08-24T05:58:06;2.85;;;2.65;;
25045;SDS011;13044;49.304;12.840;2023-08-24T06:00:33;3.25;;;2.95;;
25045;SDS011;13044;49.304;12.840;2023-08-24T06:02:59;3.05;;;2.83;;
25045;SDS011;13044;49.304;12.840;2023-08-24T06:05:26;3.38;;;3.05;;
25045;SDS011;13044;49.304;12.840;2023-08-24T06:07:53;3.33;;;2.78;;
25045;SDS011;13044;49.304;12.840;2023-08-24T06:10:20;3.03;;;2.72;;
25045;SDS011;13044;49.304;12.840;2023-08-24T06:12:48;3.60;;;2.35;;
25045;SDS011;13044;49.304;12.840;2023-08-24T06:15:15;3.38;;;2.80;;
25045;SDS011;13044;49.304;12.840;2023-08-24T06:17:42;2.95;;;2.75;;
25045;SDS011;13044;49.304;12.840;2023-08-24T06:20:09;4.60;;;2.67;;
25045;SDS011;13044;49.304;12.840;2023-08-24T06:22:37;2.83;;;2.40;;
25045;SDS011;13044;49.304;12.840;2023-08-24T06:25:04;4.00;;;3.05;;
25045;SDS011;13044;49.304;12.840;2023-08-24T06:27:35;3.10;;;2.80;;
25045;SDS011;13044;49.304;12.840;2023-08-24T06:30:02;5.38;;;3.10;;
25045;SDS011;13044;49.304;12.840;2023-08-24T06:32:31;3.35;;;2.70;;
25045;SDS011;13044;49.304;12.840;2023-08-24T06:34:58;4.43;;;3.47;;
25045;SDS011;13044;49.304;12.840;2023-08-24T06:37:26;4.68;;;3.20;;
25045;SDS011;13044;49.304;12.840;2023-08-24T06:39:53;4.85;;;2.95;;
25045;SDS011;13044;49.304;12.840;2023-08-24T06:42:20;3.50;;;3.20;;
25045;SDS011;13044;49.304;12.840;2023-08-24T06:44:47;3.28;;;2.97;;
25045;SDS011;13044;49.304;12.840;2023-08-24T06:47:17;3.80;;;3.10;;
25045;SDS011;13044;49.304;12.840;2023-08-24T06:49:44;4.65;;;3.50;;
25045;SDS011;13044;49.304;12.840;2023-08-24T06:52:11;6.47;;;2.90;;
25045;SDS011;13044;49.304;12.840;2023-08-24T06:54:38;4.70;;;2.53;;
25045;SDS011;13044;49.304;12.840;2023-08-24T06:57:05;3.25;;;2.95;;
25045;SDS011;13044;49.304;12.840;2023-08-24T06:59:32;4.78;;;4.10;;
25045;SDS011;13044;49.304;12.840;2023-08-24T07:01:59;4.97;;;3.13;;
25045;SDS011;13044;49.304;12.840;2023-08-24T07:04:26;4.90;;;3.08;;
25045;SDS011;13044;49.304;12.840;2023-08-24T07:06:54;6.50;;;3.70;;
25045;SDS011;13044;49.304;12.840;2023-08-24T07:09:20;9.15;;;3.58;;
25045;SDS011;13044;49.304;12.840;2023-08-24T07:11:48;5.15;;;3.70;;
25045;SDS011;13044;49.304;12.840;2023-08-24T07:14:15;5.55;;;3.28;;
25045;SDS011;13044;49.304;12.840;2023-08-24T07:16:42;4.53;;;3.35;;
25045;SDS011;13044;49.304;12.840;2023-08-24T07:19:09;4.22;;;3.38;;
25045;SDS011;13044;49.304;12.840;2023-08-24T07:21:36;4.38;;;3.50;;
25045;SDS011;13044;49.304;12.840;2023-08-24T07:24:03;3.97;;;3.22;;
25045;SDS011;13044;49.304;12.840;2023-08-24T07:26:31;3.97;;;3.50;;
25045;SDS011;13044;49.304;12.840;2023-08-24T07:28:59;5.18;;;3.78;;
25045;SDS011;13044;49.304;12.840;2023-08-24T07:31:26;6.40;;;3.70;;
25045;SDS011;13044;49.304;12.840;2023-08-24T07:33:53;3.78;;;3.47;;
25045;SDS011;13044;49.304;12.840;2023-08-24T07:36:20;4.28;;;3.88;;
25045;SDS011;13044;49.304;12.840;2023-08-24T07:38:47;3.50;;;3.20;;
25045;SDS011;13044;49.304;12.840;2023-08-24T07:41:14;4.55;;;3.17;;
25045;SDS011;13044;49.304;12.840;2023-08-24T07:43:41;3.72;;;3.42;;
25045;SDS011;13044;49.304;12.840;2023-08-24T07:46:08;5.90;;;3.72;;
25045;SDS011;13044;49.304;12.840;2023-08-24T07:48:35;3.67;;;3.38;;
25045;SDS011;13044;49.304;12.840;2023-08-24T07:51:02;4.72;;;4.07;;
25045;SDS011;13044;49.304;12.840;2023-08-24T07:53:30;6.45;;;4.13;;
25045;SDS011;13044;49.304;12.840;2023-08-24T07:55:59;4.57;;;3.50;;
25045;SDS011;13044;49.304;12.840;2023-08-24T07:58:27;4.05;;;3.65;;
25045;SDS011;13044;49.304;12.840;2023-08-24T08:00:54;4.68;;;3.25;;
25045;SDS011;13044;49.304;12.840;2023-08-24T08:03:21;3.75;;;3.45;;
25045;SDS011;13044;49.304;12.840;2023-08-24T08:05:48;7.43;;;3.50;;
25045;SDS011;13044;49.304;12.840;2023-08-24T08:08:15;4.07;;;3.33;;
25045;SDS011;13044;49.304;12.840;2023-08-24T08:10:43;6.88;;;4.13;;
25045;SDS011;13044;49.304;12.840;2023-08-24T08:13:09;4.70;;;3.20;;
25045;SDS011;13044;49.304;12.840;2023-08-24T08:15:37;4.22;;;3.08;;
25045;SDS011;13044;49.304;12.840;2023-08-24T08:18:05;5.43;;;3.38;;
25045;SDS011;13044;49.304;12.840;2023-08-24T08:20:32;5.35;;;3.10;;
25045;SDS011;13044;49.304;12.840;2023-08-24T08:22:59;4.60;;;3.55;;
25045;SDS011;13044;49.304;12.840;2023-08-24T08:25:26;5.95;;;4.10;;
25045;SDS011;13044;49.304;12.840;2023-08-24T08:27:54;3.47;;;3.17;;
25045;SDS011;13044;49.304;12.840;2023-08-24T08:30:21;3.90;;;3.50;;
25045;SDS011;13044;49.304;12.840;2023-08-24T08:32:48;3.78;;;3.10;;
25045;SDS011;13044;49.304;12.840;2023-08-24T08:35:18;7.95;;;3.33;;
25045;SDS011;13044;49.304;12.840;2023-08-24T08:37:45;5.15;;;3.30;;
25045;SDS011;13044;49.304;12.840;2023-08-24T08:40:13;3.03;;;2.72;;
25045;SDS011;13044;49.304;12.840;2023-08-24T08:42:40;5.32;;;3.67;;
25045;SDS011;13044;49.304;12.840;2023-08-24T08:45:10;3.35;;;3.00;;
25045;SDS011;13044;49.304;12.840;2023-08-24T08:47:38;3.95;;;3.40;;
25045;SDS011;13044;49.304;12.840;2023-08-24T08:50:07;5.20;;;3.38;;
25045;SDS011;13044;49.304;12.840;2023-08-24T08:52:36;5.07;;;3.22;;
25045;SDS011;13044;49.304;12.840;2023-08-24T08:55:03;3.15;;;2.80;;
25045;SDS011;13044;49.304;12.840;2023-08-24T08:57:32;5.20;;;2.85;;
25045;SDS011;13044;49.304;12.840;2023-08-24T09:00:00;3.15;;;2.85;;
25045;SDS011;13044;49.304;12.840;2023-08-24T09:02:28;2.70;;;2.50;;
25045;SDS011;13044;49.304;12.840;2023-08-24T09:04:57;4.25;;;3.00;;
25045;SDS011;13044;49.304;12.840;2023-08-24T09:07:24;3.22;;;2.85;;
25045;SDS011;13044;49.304;12.840;2023-08-24T09:09:51;4.05;;;2.75;;
25045;SDS011;13044;49.304;12.840;2023-08-24T09:12:18;3.42;;;2.85;;
25045;SDS011;13044;49.304;12.840;2023-08-24T09:14:45;4.60;;;2.80;;
25045;SDS011;13044;49.304;12.840;2023-08-24T09:17:21;3.40;;;3.10;;
25045;SDS011;13044;49.304;12.840;2023-08-24T09:19:49;6.95;;;2.65;;
25045;SDS011;13044;49.304;12.840;2023-08-24T09:22:19;3.88;;;2.80;;
25045;SDS011;13044;49.304;12.840;2023-08-24T09:24:48;4.38;;;2.90;;
25045;SDS011;13044;49.304;12.840;2023-08-24T09:27:19;6.55;;;2.50;;
25045;SDS011;13044;49.304;12.840;2023-08-24T09:29:50;2.92;;;2.60;;
25045;SDS011;13044;49.304;12.840;2023-08-24T09:32:22;2.50;;;2.30;;
25045;SDS011;13044;49.304;12.840;2023-08-24T09:34:50;2.83;;;2.63;;
25045;SDS011;13044;49.304;12.840;2023-08-24T09:37:17;2.53;;;2.33;;
25045;SDS011;13044;49.304;12.840;2023-08-24T09:39:46;3.05;;;2.38;;
25045;SDS011;13044;49.304;12.840;2023-08-24T09:42:13;4.40;;;2.33;;
25045;SDS011;13044;49.304;12.840;2023-08-24T09:44:44;2.30;;;2.10;;
25045;SDS011;13044;49.304;12.840;2023-08-24T09:47:13;2.38;;;2.17;;
25045;SDS011;13044;49.304;12.840;2023-08-24T09:49:40;3.15;;;2.25;;
25045;SDS011;13044;49.304;12.840;2023-08-24T09:52:08;3.03;;;2.15;;
25045;SDS011;13044;49.304;12.840;2023-08-24T09:54:36;1.92;;;1.83;;
25045;SDS011;13044;49.304;12.840;2023-08-24T09:57:05;2.33;;;2.13;;
25045;SDS011;13044;49.304;12.840;2023-08-24T09:59:35;2.50;;;2.00;;
25045;SDS011;13044;49.304;12.840;2023-08-24T10:02:12;2.35;;;2.15;;
25045;SDS011;13044;49.304;12.840;2023-08-24T10:04:47;6.00;;;2.40;;
25045;SDS011;13044;49.304;12.840;2023-08-24T10:07:15;3.75;;;2.40;;
25045;SDS011;13044;49.304;12.840;2023-08-24T10:09:56;2.35;;;2.15;;
25045;SDS011;13044;49.304;12.840;2023-08-24T10:15:02;2.72;;;2.20;;
25045;SDS011;13044;49.304;12.840;2023-08-24T10:17:33;4.07;;;2.40;;
25045;SDS011;13044;49.304;12.840;2023-08-24T10:20:02;4.40;;;2.40;;
25045;SDS011;13044;49.304;12.840;2023-08-24T10:22:35;2.63;;;2.35;;
25045;SDS011;13044;49.304;12.840;2023-08-24T10:25:06;2.25;;;2.05;;
25045;SDS011;13044;49.304;12.840;2023-08-24T10:27:35;4.53;;;2.55;;
25045;SDS011;13044;49.304;12.840;2023-08-24T10:30:03;2.65;;;2.35;;
25045;SDS011;13044;49.304;12.840;2023-08-24T10:32:30;3.17;;;2.30;;
25045;SDS011;13044;49.304;12.840;2023-08-24T10:34:58;2.45;;;1.98;;
25045;SDS011;13044;49.304;12.840;2023-08-24T10:37:26;3.17;;;2.58;;
25045;SDS011;13044;49.304;12.840;2023-08-24T10:39:54;2.60;;;2.35;;
25045;SDS011;13044;49.304;12.840;2023-08-24T10:42:21;2.58;;;2.38;;
25045;SDS011;13044;49.304;12.840;2023-08-24T10:44:48;4.05;;;2.60;;
25045;SDS011;13044;49.304;12.840;2023-08-24T10:52:30;2.72;;;2.33;;
25045;SDS011;13044;49.304;12.840;2023-08-24T10:55:03;2.50;;;2.30;;
25045;SDS011;13044;49.304;12.840;2023-08-24T10:57:35;2.83;;;2.40;;
25045;SDS011;13044;49.304;12.840;2023-08-24T11:02:50;3.13;;;2.30;;
25045;SDS011;13044;49.304;12.840;2023-08-24T11:05:27;3.55;;;2.42;;
25045;SDS011;13044;49.304;12.840;2023-08-24T11:08:01;4.53;;;3.45;;
25045;SDS011;13044;49.304;12.840;2023-08-24T11:10:31;3.03;;;2.72;;
25045;SDS011;13044;49.304;12.840;2023-08-24T11:13:09;4.07;;;3.42;;
25045;SDS011;13044;49.304;12.840;2023-08-24T11:15:41;3.90;;;3.28;;
25045;SDS011;13044;49.304;12.840;2023-08-24T11:21:00;4.40;;;3.53;;
25045;SDS011;13044;49.304;12.840;2023-08-24T11:23:32;4.50;;;3.63;;
25045;SDS011;13044;49.304;12.840;2023-08-24T11:26:01;4.40;;;3.40;;
25045;SDS011;13044;49.304;12.840;2023-08-24T11:28:28;4.90;;;3.58;;
25045;SDS011;13044;49.304;12.840;2023-08-24T11:30:57;4.65;;;4.00;;
25045;SDS011;13044;49.304;12.840;2023-08-24T11:33:32;3.95;;;3.50;;
25045;SDS011;13044;49.304;12.840;2023-08-24T11:36:03;4.80;;;3.88;;
25045;SDS011;13044;49.304;12.840;2023-08-24T11:41:16;4.43;;;3.63;;
25045;SDS011;13044;49.304;12.840;2023-08-24T11:43:45;4.80;;;3.08;;
25045;SDS011;13044;49.304;12.840;2023-08-24T11:46:17;3.38;;;2.60;;
25045;SDS011;13044;49.304;12.840;2023-08-24T11:48:45;4.15;;;2.50;;
25045;SDS011;13044;49.304;12.840;2023-08-24T11:51:12;3.25;;;2.65;;
25045;SDS011;13044;49.304;12.840;2023-08-24T11:53:43;3.75;;;2.95;;
25045;SDS011;13044;49.304;12.840;2023-08-24T11:56:12;3.30;;;2.85;;
25045;SDS011;13044;49.304;12.840;2023-08-24T11:58:40;4.35;;;2.80;;
25045;SDS011;13044;49.304;12.840;2023-08-24T12:01:08;5.97;;;2.80;;
25045;SDS011;13044;49.304;12.840;2023-08-24T12:03:38;3.03;;;2.60;;
25045;SDS011;13044;49.304;12.840;2023-08-24T12:06:12;3.97;;;2.70;;
25045;SDS011;13044;49.304;12.840;2023-08-24T12:08:41;3.03;;;2.55;;
25045;SDS011;13044;49.304;12.840;2023-08-24T12:11:15;2.65;;;2.45;;
25045;SDS011;13044;49.304;12.840;2023-08-24T12:13:48;3.17;;;2.65;;
25045;SDS011;13044;49.304;12.840;2023-08-24T12:16:17;2.92;;;2.63;;
25045;SDS011;13044;49.304;12.840;2023-08-24T12:18:46;3.05;;;2.75;;
25045;SDS011;13044;49.304;12.840;2023-08-24T12:21:26;3.25;;;2.95;;
25045;SDS011;13044;49.304;12.840;2023-08-24T12:24:02;3.83;;;3.00;;
25045;SDS011;13044;49.304;12.840;2023-08-24T12:26:32;4.68;;;2.92;;
25045;SDS011;13044;49.304;12.840;2023-08-24T12:29:02;3.03;;;2.75;;
25045;SDS011;13044;49.304;12.840;2023-08-24T12:31:32;3.75;;;3.13;;
25045;SDS011;13044;49.304;12.840;2023-08-24T12:34:00;3.05;;;2.75;;
25045;SDS011;13044;49.304;12.840;2023-08-24T12:36:30;3.28;;;2.78;;
25045;SDS011;13044;49.304;12.840;2023-08-24T12:38:59;4.07;;;2.92;;
25045;SDS011;13044;49.304;12.840;2023-08-24T12:41:26;3.85;;;2.75;;
25045;SDS011;13044;49.304;12.840;2023-08-24T12:43:53;3.70;;;2.67;;
25045;SDS011;13044;49.304;12.840;2023-08-24T12:46:20;2.97;;;2.67;;
25045;SDS011;13044;49.304;12.840;2023-08-24T12:48:47;3.85;;;2.92;;
25045;SDS011;13044;49.304;12.840;2023-08-24T12:51:14;3.35;;;2.88;;
25045;SDS011;13044;49.304;12.840;2023-08-24T12:53:41;3.03;;;2.65;;
25045;SDS011;13044;49.304;12.840;2023-08-24T12:56:08;3.30;;;3.00;;
25045;SDS011;13044;49.304;12.840;2023-08-24T12:58:35;3.20;;;2.83;;
25045;SDS011;13044;49.304;12.840;2023-08-24T13:01:02;3.40;;;2.83;;
25045;SDS011;13044;49.304;12.840;2023-08-24T13:03:29;3.55;;;3.00;;
25045;SDS011;13044;49.304;12.840;2023-08-24T13:05:56;3.70;;;3.10;;
25045;SDS011;13044;49.304;12.840;2023-08-24T13:08:38;3.83;;;2.50;;
25045;SDS011;13044;49.304;12.840;2023-08-24T13:11:05;3.75;;;3.08;;
25045;SDS011;13044;49.304;12.840;2023-08-24T13:13:32;7.35;;;3.17;;
25045;SDS011;13044;49.304;12.840;2023-08-24T13:15:59;5.07;;;3.40;;
25045;SDS011;13044;49.304;12.840;2023-08-24T13:18:26;3.00;;;2.70;;
25045;SDS011;13044;49.304;12.840;2023-08-24T13:20:53;2.97;;;2.67;;
25045;SDS011;13044;49.304;12.840;2023-08-24T13:23:20;2.72;;;2.53;;
25045;SDS011;13044;49.304;12.840;2023-08-24T13:25:47;3.30;;;2.95;;
25045;SDS011;13044;49.304;12.840;2023-08-24T13:28:13;3.20;;;2.90;;
25045;SDS011;13044;49.304;12.840;2023-08-24T13:30:41;3.35;;;2.95;;
25045;SDS011;13044;49.304;12.840;2023-08-24T13:33:09;2.85;;;2.65;;
25045;SDS011;13044;49.304;12.840;2023-08-24T13:35:36;3.65;;;2.92;;
25045;SDS011;13044;49.304;12.840;2023-08-24T13:38:03;4.03;;;2.63;;
25045;SDS011;13044;49.304;12.840;2023-08-24T13:40:30;3.67;;;2.90;;
25045;SDS011;13044;49.304;12.840;2023-08-24T13:42:57;2.95;;;2.65;;
25045;SDS011;13044;49.304;12.840;2023-08-24T13:45:23;3.80;;;3.20;;
25045;SDS011;13044;49.304;12.840;2023-08-24T13:47:51;3.35;;;2.97;;
25045;SDS011;13044;49.304;12.840;2023-08-24T13:50:18;3.17;;;2.80;;
25045;SDS011;13044;49.304;12.840;2023-08-24T13:52:44;3.60;;;3.13;;
25045;SDS011;13044;49.304;12.840;2023-08-24T13:55:11;3.22;;;2.92;;
25045;SDS011;13044;49.304;12.840;2023-08-24T13:57:39;3.00;;;2.70;;
25045;SDS011;13044;49.304;12.840;2023-08-24T14:00:06;2.65;;;2.45;;
25045;SDS011;13044;49.304;12.840;2023-08-24T14:02:35;3.33;;;2.70;;
25045;SDS011;13044;49.304;12.840;2023-08-24T14:05:02;3.65;;;3.10;;
25045;SDS011;13044;49.304;12.840;2023-08-24T14:07:29;4.65;;;3.05;;
25045;SDS011;13044;49.304;12.840;2023-08-24T14:09:56;3.05;;;2.80;;
25045;SDS011;13044;49.304;12.840;2023-08-24T14:12:31;3.25;;;2.95;;
25045;SDS011;13044;49.304;12.840;2023-08-24T14:14:58;3.95;;;2.92;;
25045;SDS011;13044;49.304;12.840;2023-08-24T14:17:26;8.68;;;2.95;;
25045;SDS011;13044;49.304;12.840;2023-08-24T14:19:53;4.10;;;2.80;;
25045;SDS011;13044;49.304;12.840;2023-08-24T14:22:20;3.30;;;3.00;;
25045;SDS011;13044;49.304;12.840;2023-08-24T14:24:47;5.20;;;3.10;;
25045;SDS011;13044;49.304;12.840;2023-08-24T14:27:15;4.57;;;2.92;;
25045;SDS011;13044;49.304;12.840;2023-08-24T14:29:41;3.17;;;2.78;;
25045;SDS011;13044;49.304;12.840;2023-08-24T14:32:08;4.35;;;3.05;;
25045;SDS011;13044;49.304;12.840;2023-08-24T14:34:35;3.50;;;3.20;;
25045;SDS011;13044;49.304;12.840;2023-08-24T14:37:02;3.13;;;2.85;;
25045;SDS011;13044;49.304;12.840;2023-08-24T14:39:29;3.15;;;2.85;;
25045;SDS011;13044;49.304;12.840;2023-08-24T14:41:56;2.90;;;2.60;;
25045;SDS011;13044;49.304;12.840;2023-08-24T14:44:23;3.03;;;2.67;;
25045;SDS011;13044;49.304;12.840;2023-08-24T14:46:50;3.08;;;2.78;;
25045;SDS011;13044;49.304;12.840;2023-08-24T14:49:17;4.38;;;2.97;;
25045;SDS011;13044;49.304;12.840;2023-08-24T14:51:45;3.40;;;3.10;;
25045;SDS011;13044;49.304;12.840;2023-08-24T14:54:13;3.28;;;2.97;;
25045;SDS011;13044;49.304;12.840;2023-08-24T14:56:41;3.10;;;2.83;;
25045;SDS011;13044;49.304;12.840;2023-08-24T14:59:08;3.50;;;3.20;;
25045;SDS011;13044;49.304;12.840;2023-08-24T15:01:35;3.08;;;2.78;;